TimeEST,TemperatureF,Dew PointF,Humidity,Sea Level PressureIn,VisibilityMPH,Wind Direction,Wind SpeedMPH,Gust SpeedMPH,PrecipitationIn,Events,Conditions,WindDirDegrees,DateUTC
12:53 AM,19.9,15.1,81,30.37,10.0,SSE,4.6,-,N/A,,Clear,160,2012-02-26 05:53:00
2:53 AM,18.0,15.1,88,30.38,9.0,ESE,4.6,-,N/A,,Clear,120,2012-02-26 07:53:00
3:53 AM,19.9,15.1,81,30.38,10.0,SSE,3.5,-,N/A,,Clear,150,2012-02-26 08:53:00
4:53 AM,19.0,15.1,85,30.38,10.0,ESE,5.8,-,N/A,,Clear,120,2012-02-26 09:53:00
5:53 AM,19.9,15.1,81,30.39,10.0,SE,6.9,-,N/A,,Clear,130,2012-02-26 10:53:00
6:53 AM,21.0,17.1,85,30.39,10.0,SE,6.9,-,N/A,,Clear,140,2012-02-26 11:53:00
8:53 AM,26.1,18.0,71,30.38,10.0,SSE,9.2,-,N/A,,Clear,150,2012-02-26 13:53:00
9:53 AM,28.9,19.0,67,30.32,10.0,SE,16.1,25.3,N/A,,Clear,140,2012-02-26 14:53:00
10:53 AM,32.0,21.0,64,30.31,10.0,SSE,16.1,21.9,N/A,,Clear,160,2012-02-26 15:53:00
11:53 AM,35.1,21.0,57,30.28,10.0,SE,16.1,23.0,N/A,,Clear,140,2012-02-26 16:53:00
12:53 PM,37.9,23.0,55,30.26,10.0,SSE,15.0,-,N/A,,Clear,150,2012-02-26 17:53:00
1:53 PM,41.0,24.1,51,30.22,10.0,South,15.0,-,N/A,,Clear,170,2012-02-26 18:53:00
2:53 PM,43.0,25.0,49,30.16,10.0,SSE,20.7,26.5,N/A,,Clear,160,2012-02-26 19:53:00
3:53 PM,44.1,26.1,49,30.13,10.0,SSE,23.0,27.6,N/A,,Clear,160,2012-02-26 20:53:00
4:53 PM,45.0,26.1,48,30.11,10.0,SSE,20.7,26.5,N/A,,Clear,160,2012-02-26 21:53:00
5:53 PM,44.1,25.0,47,30.12,10.0,South,12.7,-,N/A,,Clear,180,2012-02-26 22:53:00
6:53 PM,41.0,25.0,53,30.13,10.0,South,9.2,-,N/A,,Clear,170,2012-02-26 23:53:00
7:53 PM,39.9,25.0,55,30.14,10.0,SSE,10.4,-,N/A,,Clear,160,2012-02-27 00:53:00
8:53 PM,41.0,25.0,53,30.12,10.0,South,12.7,-,N/A,,Clear,170,2012-02-27 01:53:00
9:53 PM,41.0,23.0,49,30.11,10.0,South,13.8,21.9,N/A,,Clear,180,2012-02-27 02:53:00
10:53 PM,41.0,23.0,49,30.11,10.0,South,12.7,-,N/A,,Clear,180,2012-02-27 03:53:00
11:53 PM,41.0,23.0,49,30.09,10.0,South,15.0,-,N/A,,Clear,190,2012-02-27 04:53:00